createdAt,value
2023-08-22T00:00:56.395Z,19.72
2023-08-22T00:03:25.748Z,19.69
2023-08-22T00:05:55.022Z,19.70
2023-08-22T00:08:24.235Z,19.67
2023-08-22T00:10:53.513Z,19.66
2023-08-22T00:13:22.676Z,19.62
2023-08-22T00:15:51.914Z,19.60
2023-08-22T00:18:21.165Z,19.59
2023-08-22T00:20:50.378Z,19.55
2023-08-22T00:23:20.052Z,19.52
2023-08-22T00:25:49.310Z,19.48
2023-08-22T00:28:18.537Z,19.44
2023-08-22T00:30:48.043Z,19.43
2023-08-22T00:33:17.233Z,19.42
2023-08-22T00:35:46.398Z,19.39
2023-08-22T00:38:15.551Z,19.36
2023-08-22T00:40:44.776Z,19.35
2023-08-22T00:43:14.013Z,19.35
2023-08-22T00:45:44.999Z,19.36
2023-08-22T00:48:14.780Z,19.33
2023-08-22T00:50:44.704Z,19.32
2023-08-22T00:53:14.133Z,19.33
2023-08-22T00:55:43.509Z,19.31
2023-08-22T00:58:14.431Z,19.31
2023-08-22T01:00:43.734Z,19.26
2023-08-22T01:03:13.981Z,19.22
2023-08-22T01:05:52.321Z,19.19
2023-08-22T01:08:31.037Z,19.14
2023-08-22T01:11:28.560Z,19.09
2023-08-22T01:13:59.741Z,19.09
2023-08-22T01:16:29.291Z,19.06
2023-08-22T01:19:02.446Z,19.03
2023-08-22T01:21:35.382Z,19.02
2023-08-22T01:24:06.647Z,19.00
2023-08-22T01:26:35.934Z,18.97
2023-08-22T01:29:12.935Z,18.95
2023-08-22T01:32:22.793Z,18.92
2023-08-22T01:34:58.836Z,18.88
2023-08-22T01:37:29.403Z,18.86
2023-08-22T01:40:00.770Z,18.83
2023-08-22T01:42:30.914Z,18.81
2023-08-22T01:45:00.237Z,18.77
2023-08-22T01:47:29.503Z,18.76
2023-08-22T01:49:58.794Z,18.74
2023-08-22T01:52:28.041Z,18.72
2023-08-22T01:54:57.254Z,18.71
2023-08-22T01:57:27.627Z,18.66
2023-08-22T01:59:56.833Z,18.63
2023-08-22T02:02:26.143Z,18.60
2023-08-22T02:04:55.382Z,18.55
2023-08-22T02:07:24.628Z,18.50
2023-08-22T02:09:53.852Z,18.46
2023-08-22T02:12:25.605Z,18.41
2023-08-22T02:14:54.985Z,18.40
2023-08-22T02:17:24.117Z,18.38
2023-08-22T02:19:53.332Z,18.36
2023-08-22T02:22:22.595Z,18.31
2023-08-22T02:24:51.793Z,18.27
2023-08-22T02:27:20.991Z,18.23
2023-08-22T02:29:50.600Z,18.20
2023-08-22T02:32:19.802Z,18.16
2023-08-22T02:34:48.969Z,18.11
2023-08-22T02:37:18.185Z,18.08
2023-08-22T02:39:47.377Z,18.05
2023-08-22T02:42:16.608Z,18.03
2023-08-22T02:44:45.881Z,17.98
2023-08-22T02:47:15.097Z,17.94
2023-08-22T02:49:44.294Z,17.91
2023-08-22T02:52:13.458Z,17.86
2023-08-22T02:54:42.622Z,17.82
2023-08-22T02:57:11.806Z,17.79
2023-08-22T02:59:40.983Z,17.76
2023-08-22T03:02:11.625Z,17.74
2023-08-22T03:04:41.105Z,17.74
2023-08-22T03:07:11.535Z,17.69
2023-08-22T03:09:45.621Z,17.66
2023-08-22T03:12:15.290Z,17.63
2023-08-22T03:14:45.061Z,17.62
2023-08-22T03:17:14.506Z,17.59
2023-08-22T03:19:43.772Z,17.55
2023-08-22T03:22:12.941Z,17.53
2023-08-22T03:24:42.154Z,17.51
2023-08-22T03:27:12.082Z,17.49
2023-08-22T03:29:42.901Z,17.47
2023-08-22T03:32:12.543Z,17.45
2023-08-22T03:34:41.804Z,17.42
2023-08-22T03:37:11.157Z,17.38
2023-08-22T03:39:40.851Z,17.35
2023-08-22T03:42:11.339Z,17.33
2023-08-22T03:44:40.617Z,17.30
2023-08-22T03:47:09.953Z,17.28
2023-08-22T03:49:43.405Z,17.27
2023-08-22T03:52:13.302Z,17.26
2023-08-22T03:54:42.521Z,17.26
2023-08-22T03:57:11.724Z,17.25
2023-08-22T03:59:40.975Z,17.23
2023-08-22T04:02:10.236Z,17.24
2023-08-22T04:04:39.422Z,17.20
2023-08-22T04:07:08.581Z,17.18
2023-08-22T04:09:38.108Z,17.18
2023-08-22T04:12:07.502Z,17.14
2023-08-22T04:14:38.188Z,17.11
2023-08-22T04:17:07.460Z,17.10
2023-08-22T04:19:36.704Z,17.10
2023-08-22T04:22:06.165Z,17.05
2023-08-22T04:24:35.398Z,17.04
2023-08-22T04:27:05.472Z,17.02
2023-08-22T04:29:35.245Z,16.99
2023-08-22T04:32:05.056Z,16.98
2023-08-22T04:34:35.257Z,16.97
2023-08-22T04:37:06.618Z,16.94
2023-08-22T04:39:36.120Z,16.94
2023-08-22T04:42:17.044Z,16.92
2023-08-22T04:44:55.309Z,16.92
2023-08-22T04:47:24.718Z,16.91
2023-08-22T04:49:53.917Z,16.89
2023-08-22T04:52:23.113Z,16.88
2023-08-22T04:54:52.372Z,16.90
2023-08-22T04:57:24.913Z,16.87
2023-08-22T04:59:56.213Z,16.85
2023-08-22T05:02:26.325Z,16.86
2023-08-22T05:04:55.809Z,16.85
2023-08-22T05:07:25.547Z,16.84
2023-08-22T05:09:55.521Z,16.85
2023-08-22T05:12:24.900Z,16.88
2023-08-22T05:14:54.210Z,16.90
2023-08-22T05:17:23.488Z,16.93
2023-08-22T05:19:53.154Z,16.96
2023-08-22T05:22:22.384Z,16.99
2023-08-22T05:24:52.288Z,17.03
2023-08-22T05:27:21.522Z,17.07
2023-08-22T05:29:50.675Z,17.11
2023-08-22T05:32:20.635Z,17.16
2023-08-22T05:34:51.732Z,17.23
2023-08-22T05:37:21.059Z,17.30
2023-08-22T05:39:50.709Z,17.35
2023-08-22T05:42:20.538Z,17.42
2023-08-22T05:44:49.713Z,17.48
2023-08-22T05:47:18.879Z,17.56
2023-08-22T05:49:48.357Z,17.65
2023-08-22T05:52:17.617Z,17.72
2023-08-22T05:54:46.878Z,17.80
2023-08-22T05:57:16.067Z,17.85
2023-08-22T05:59:45.364Z,17.91
2023-08-22T06:02:14.749Z,17.96
2023-08-22T06:04:45.599Z,18.02
2023-08-22T06:07:15.020Z,18.06
2023-08-22T06:09:44.285Z,18.11
2023-08-22T06:12:13.626Z,18.13
2023-08-22T06:14:43.207Z,18.16
2023-08-22T06:17:12.468Z,18.19
2023-08-22T06:19:41.718Z,18.23
2023-08-22T06:22:11.077Z,18.23
2023-08-22T06:24:40.314Z,18.26
2023-08-22T06:27:10.257Z,18.29
2023-08-22T06:29:39.901Z,18.44
2023-08-22T06:32:09.370Z,18.58
2023-08-22T06:34:39.825Z,18.72
2023-08-22T06:37:09.049Z,18.92
2023-08-22T06:42:26.647Z,19.48
2023-08-22T06:44:57.988Z,19.78
2023-08-22T06:47:27.675Z,20.10
2023-08-22T06:49:56.853Z,20.29
2023-08-22T06:52:26.043Z,20.53
2023-08-22T06:54:55.644Z,20.81
2023-08-22T06:57:25.196Z,21.00
2023-08-22T06:59:54.421Z,21.07
2023-08-22T07:02:23.662Z,21.29
2023-08-22T07:04:52.967Z,21.43
2023-08-22T07:07:22.228Z,21.88
2023-08-22T07:09:53.137Z,22.09
2023-08-22T07:12:22.348Z,22.20
2023-08-22T07:14:51.586Z,22.42
2023-08-22T07:17:20.768Z,22.86
2023-08-22T07:19:51.683Z,23.37
2023-08-22T07:22:21.971Z,23.37
2023-08-22T07:24:51.205Z,23.25
2023-08-22T07:27:21.806Z,23.06
2023-08-22T07:29:51.121Z,22.99
2023-08-22T07:32:20.964Z,22.91
2023-08-22T07:34:50.992Z,22.83
2023-08-22T07:37:20.162Z,22.68
2023-08-22T07:39:49.312Z,22.80
2023-08-22T07:42:18.552Z,22.79
2023-08-22T07:44:47.785Z,22.80
2023-08-22T07:47:16.944Z,22.77
2023-08-22T07:49:46.649Z,22.78
2023-08-22T07:52:15.815Z,22.68
2023-08-22T07:54:44.982Z,22.66
2023-08-22T07:57:19.197Z,22.66
2023-08-22T07:59:48.987Z,22.56
2023-08-22T08:02:18.201Z,22.47
2023-08-22T08:04:47.486Z,22.49
2023-08-22T08:07:16.666Z,22.46
2023-08-22T08:09:45.886Z,22.46
2023-08-22T08:12:15.102Z,22.52
2023-08-22T08:14:44.374Z,22.53
2023-08-22T08:17:13.708Z,22.50
2023-08-22T08:19:42.967Z,22.50
2023-08-22T08:22:12.588Z,22.51
2023-08-22T08:24:41.752Z,22.48
2023-08-22T08:27:10.985Z,22.46
2023-08-22T08:29:40.153Z,22.54
2023-08-22T08:32:09.383Z,22.48
2023-08-22T08:34:38.717Z,22.53
2023-08-22T08:37:08.057Z,22.67
2023-08-22T08:39:37.259Z,22.86
2023-08-22T08:42:13.854Z,22.99
2023-08-22T08:44:43.923Z,23.10
2023-08-22T08:47:13.960Z,23.17
2023-08-22T08:49:44.160Z,23.09
2023-08-22T08:52:13.897Z,22.90
2023-08-22T08:54:44.198Z,22.83
2023-08-22T08:57:13.414Z,22.76
2023-08-22T08:59:43.773Z,22.79
2023-08-22T09:05:07.824Z,23.03
2023-08-22T09:07:37.273Z,23.29
2023-08-22T09:10:09.866Z,23.64
2023-08-22T09:12:42.491Z,23.86
2023-08-22T09:15:19.797Z,24.13
2023-08-22T09:17:49.056Z,24.26
2023-08-22T09:20:19.960Z,24.24
2023-08-22T09:22:49.226Z,24.20
2023-08-22T09:25:19.937Z,24.31
2023-08-22T09:27:52.473Z,24.32
2023-08-22T09:30:27.121Z,24.40
2023-08-22T09:33:02.796Z,24.42
2023-08-22T09:35:34.713Z,24.37
2023-08-22T09:38:12.691Z,24.41
2023-08-22T09:40:53.321Z,24.52
2023-08-22T09:43:23.678Z,24.55
2023-08-22T09:45:53.872Z,24.49
2023-08-22T09:48:31.686Z,24.57
2023-08-22T09:51:08.544Z,24.71
2023-08-22T09:53:41.026Z,24.81
2023-08-22T09:56:10.351Z,24.85
2023-08-22T09:58:42.286Z,24.82
2023-08-22T10:01:15.607Z,24.83
2023-08-22T10:03:47.102Z,24.79
2023-08-22T10:06:17.417Z,24.83
2023-08-22T10:08:47.065Z,24.98
2023-08-22T10:11:19.858Z,25.14
2023-08-22T10:13:49.177Z,25.25
2023-08-22T10:16:18.452Z,25.45
2023-08-22T10:18:48.467Z,25.48
2023-08-22T10:21:18.461Z,25.40
2023-08-22T10:23:56.636Z,25.25
2023-08-22T10:26:30.004Z,25.14
2023-08-22T10:29:18.863Z,25.27
2023-08-22T10:32:03.130Z,25.13
2023-08-22T10:34:41.891Z,25.13
2023-08-22T10:37:46.605Z,25.08
2023-08-22T10:40:33.817Z,24.87
2023-08-22T10:43:08.254Z,24.89
2023-08-22T10:45:39.803Z,24.96
2023-08-22T10:48:14.904Z,25.08
2023-08-22T10:50:46.048Z,24.97
2023-08-22T10:53:29.319Z,25.10
2023-08-22T10:56:18.106Z,25.25
2023-08-22T10:58:58.695Z,25.62
2023-08-22T11:01:28.744Z,25.77
2023-08-22T11:03:58.967Z,25.66
2023-08-22T11:06:28.171Z,25.65
2023-08-22T11:08:57.414Z,25.72
2023-08-22T11:11:26.769Z,25.77
2023-08-22T11:13:57.956Z,25.83
2023-08-22T11:16:27.468Z,25.89
2023-08-22T11:18:56.778Z,25.78
2023-08-22T11:21:27.106Z,25.66
2023-08-22T11:23:56.382Z,25.48
2023-08-22T11:26:26.287Z,25.32
2023-08-22T11:28:58.939Z,25.35
2023-08-22T11:31:28.276Z,25.35
2023-08-22T11:33:57.514Z,25.43
2023-08-22T11:36:28.324Z,25.36
2023-08-22T11:38:58.342Z,25.40
2023-08-22T11:41:30.665Z,25.65
2023-08-22T11:44:02.213Z,25.98
2023-08-22T11:46:35.090Z,25.98
2023-08-22T11:49:22.694Z,25.98
2023-08-22T11:54:34.423Z,25.88
2023-08-22T11:57:03.778Z,25.81
2023-08-22T11:59:32.953Z,25.64
2023-08-22T12:02:03.006Z,25.61
2023-08-22T12:04:49.340Z,25.57
2023-08-22T12:07:18.600Z,25.48
2023-08-22T12:10:13.464Z,25.46
2023-08-22T12:12:42.642Z,25.48
2023-08-22T12:15:11.932Z,25.51
2023-08-22T12:17:41.181Z,25.41
2023-08-22T12:20:10.935Z,25.24
2023-08-22T12:22:40.218Z,25.23
2023-08-22T12:25:09.691Z,25.12
2023-08-22T12:27:38.909Z,25.00
2023-08-22T12:30:11.648Z,25.01
2023-08-22T12:32:44.089Z,24.99
2023-08-22T12:35:13.501Z,25.08
2023-08-22T12:37:43.158Z,25.03
2023-08-22T12:40:12.617Z,24.98
2023-08-22T12:42:43.145Z,25.04
2023-08-22T12:45:12.541Z,24.97
2023-08-22T12:47:43.838Z,24.91
2023-08-22T12:50:13.393Z,24.99
2023-08-22T12:52:42.681Z,24.94
2023-08-22T12:55:12.061Z,25.06
2023-08-22T12:57:42.937Z,25.16
2023-08-22T13:00:12.861Z,25.20
2023-08-22T13:02:46.707Z,25.23
2023-08-22T13:05:26.723Z,25.25
2023-08-22T13:07:58.190Z,25.22
2023-08-22T13:10:27.379Z,25.25
2023-08-22T13:12:56.809Z,25.24
2023-08-22T13:15:26.114Z,25.21
2023-08-22T13:17:58.441Z,25.20
2023-08-22T13:20:27.740Z,25.10
2023-08-22T13:22:56.915Z,25.07
2023-08-22T13:25:26.218Z,25.12
2023-08-22T13:27:55.464Z,25.22
2023-08-22T13:30:24.793Z,25.19
2023-08-22T13:32:54.065Z,25.13
2023-08-22T13:35:24.014Z,25.12
2023-08-22T13:37:53.179Z,25.04
2023-08-22T13:40:23.110Z,24.91
2023-08-22T13:42:52.369Z,24.90
2023-08-22T13:45:22.267Z,24.95
2023-08-22T13:47:56.161Z,24.90
2023-08-22T13:50:25.429Z,24.82
2023-08-22T13:52:54.649Z,24.85
2023-08-22T13:55:23.948Z,24.96
2023-08-22T13:57:53.161Z,24.95
2023-08-22T14:00:22.466Z,24.96
2023-08-22T14:02:51.969Z,24.80
2023-08-22T14:05:29.808Z,24.71
2023-08-22T14:07:59.342Z,24.78
2023-08-22T14:10:31.110Z,24.85
2023-08-22T14:13:00.318Z,24.91
2023-08-22T14:15:29.542Z,25.02
2023-08-22T14:17:58.900Z,25.04
2023-08-22T14:20:28.078Z,25.06
2023-08-22T14:22:57.290Z,25.11
2023-08-22T14:25:26.493Z,25.05
2023-08-22T14:27:55.789Z,25.05
2023-08-22T14:30:25.136Z,25.03
2023-08-22T14:32:54.321Z,24.98
2023-08-22T14:35:23.489Z,24.96
2023-08-22T14:37:52.629Z,24.98
2023-08-22T14:40:21.822Z,24.96
2023-08-22T14:42:51.037Z,25.00
2023-08-22T14:45:20.216Z,24.98
2023-08-22T14:47:50.062Z,25.00
2023-08-22T14:50:19.280Z,24.98
2023-08-22T14:52:50.934Z,24.91
2023-08-22T14:55:20.135Z,24.85
2023-08-22T14:57:51.361Z,24.80
2023-08-22T15:00:24.400Z,24.76
2023-08-22T15:02:53.626Z,24.74
2023-08-22T15:05:22.849Z,24.76
2023-08-22T15:07:52.002Z,24.77
2023-08-22T15:10:21.418Z,24.72
2023-08-22T15:12:50.603Z,24.68
2023-08-22T15:15:19.806Z,24.68
2023-08-22T15:17:49.741Z,24.63
2023-08-22T15:20:19.089Z,24.58
2023-08-22T15:22:48.318Z,24.61
2023-08-22T15:25:17.693Z,24.68
2023-08-22T15:27:49.237Z,24.70
2023-08-22T15:30:18.383Z,24.62
2023-08-22T15:32:48.019Z,24.57
2023-08-22T15:35:17.212Z,24.53
2023-08-22T15:37:47.677Z,24.55
2023-08-22T15:40:17.092Z,24.62
2023-08-22T15:42:46.289Z,24.70
2023-08-22T15:45:15.528Z,24.76
2023-08-22T15:47:45.120Z,24.60
2023-08-22T15:50:14.580Z,24.56
2023-08-22T15:52:43.817Z,24.57
2023-08-22T15:55:12.971Z,24.52
2023-08-22T15:57:42.149Z,24.48
2023-08-22T16:00:11.638Z,24.47
2023-08-22T16:02:40.807Z,24.54
2023-08-22T16:05:10.137Z,24.58
2023-08-22T16:07:39.446Z,24.58
2023-08-22T16:10:08.869Z,24.52
2023-08-22T16:12:38.447Z,24.45
2023-08-22T16:15:08.036Z,24.47
2023-08-22T16:17:37.290Z,24.51
2023-08-22T16:20:07.037Z,24.54
2023-08-22T16:22:36.370Z,24.53
2023-08-22T16:25:05.956Z,24.50
2023-08-22T16:27:37.412Z,24.41
2023-08-22T16:30:08.460Z,24.34
2023-08-22T16:32:37.824Z,24.37
2023-08-22T16:35:07.797Z,24.30
2023-08-22T16:37:37.146Z,24.27
2023-08-22T16:40:06.862Z,24.23
2023-08-22T16:42:36.016Z,24.24
2023-08-22T16:45:05.442Z,24.26
2023-08-22T16:47:34.613Z,24.31
2023-08-22T16:50:06.733Z,24.32
2023-08-22T16:52:36.972Z,24.35
2023-08-22T16:55:06.536Z,24.37
2023-08-22T16:57:36.473Z,24.38
2023-08-22T17:00:12.853Z,24.34
2023-08-22T17:02:42.163Z,24.32
2023-08-22T17:05:11.461Z,24.22
2023-08-22T17:07:40.822Z,24.15
2023-08-22T17:10:11.276Z,24.13
2023-08-22T17:12:40.878Z,24.02
2023-08-22T17:15:11.245Z,23.94
2023-08-22T17:17:40.659Z,23.83
2023-08-22T17:20:10.211Z,23.77
2023-08-22T17:22:39.411Z,23.74
2023-08-22T17:25:09.663Z,23.70
2023-08-22T17:27:38.915Z,23.63
2023-08-22T17:30:08.871Z,23.58
2023-08-22T17:32:38.128Z,23.55
2023-08-22T17:35:07.741Z,23.44
2023-08-22T17:37:36.925Z,23.37
2023-08-22T17:40:06.459Z,23.29
2023-08-22T17:42:36.112Z,23.25
2023-08-22T17:45:05.368Z,23.12
2023-08-22T17:47:34.595Z,23.08
2023-08-22T17:50:05.438Z,23.02
2023-08-22T17:52:34.654Z,22.98
2023-08-22T17:55:04.307Z,22.98
2023-08-22T17:57:33.509Z,22.90
2023-08-22T18:00:02.663Z,22.83
2023-08-22T18:02:41.495Z,22.73
2023-08-22T18:05:10.780Z,22.71
2023-08-22T18:07:39.979Z,22.66
2023-08-22T18:10:09.727Z,22.60
2023-08-22T18:12:38.951Z,22.54
2023-08-22T18:15:08.548Z,22.53
2023-08-22T18:17:37.849Z,22.46
2023-08-22T18:20:09.419Z,22.40
2023-08-22T18:22:42.094Z,22.37
2023-08-22T18:25:11.492Z,22.33
2023-08-22T18:27:40.730Z,22.26
2023-08-22T18:30:10.381Z,22.25
2023-08-22T18:32:39.575Z,22.21
2023-08-22T18:35:09.289Z,22.14
2023-08-22T18:37:40.003Z,22.09
2023-08-22T18:40:10.503Z,22.02
2023-08-22T18:42:39.725Z,21.95
2023-08-22T18:45:09.298Z,21.86
2023-08-22T18:47:38.581Z,21.83
2023-08-22T18:50:08.461Z,21.75
2023-08-22T18:52:37.837Z,21.69
2023-08-22T18:55:07.573Z,21.61
2023-08-22T18:57:36.825Z,21.58
2023-08-22T19:00:10.339Z,21.51
2023-08-22T19:02:39.596Z,21.45
2023-08-22T19:05:09.085Z,21.39
2023-08-22T19:07:38.275Z,21.33
2023-08-22T19:10:07.827Z,21.28
2023-08-22T19:12:37.010Z,21.21
2023-08-22T19:15:07.354Z,21.15
2023-08-22T19:17:36.565Z,21.09
2023-08-22T19:20:06.082Z,21.03
2023-08-22T19:22:35.614Z,20.99
2023-08-22T19:25:04.957Z,20.94
2023-08-22T19:27:36.105Z,20.88
2023-08-22T19:30:06.419Z,20.83
2023-08-22T19:32:58.526Z,20.78
2023-08-22T19:35:27.281Z,20.73
2023-08-22T19:37:56.735Z,20.67
2023-08-22T19:40:26.038Z,20.61
2023-08-22T19:42:55.256Z,20.55
2023-08-22T19:45:24.488Z,20.48
2023-08-22T19:47:53.707Z,20.43
2023-08-22T19:50:23.160Z,20.39
2023-08-22T19:52:52.406Z,20.34
2023-08-22T19:55:21.620Z,20.30
2023-08-22T19:57:50.819Z,20.25
2023-08-22T20:00:20.337Z,20.19
2023-08-22T20:02:52.244Z,20.14
2023-08-22T20:05:23.222Z,20.05
2023-08-22T20:07:54.193Z,20.02
2023-08-22T20:10:24.009Z,19.96
2023-08-22T20:12:53.227Z,19.91
2023-08-22T20:15:22.589Z,19.86
2023-08-22T20:17:54.949Z,19.81
2023-08-22T20:20:26.066Z,19.75
2023-08-22T20:22:55.239Z,19.71
2023-08-22T20:25:24.543Z,19.65
2023-08-22T20:27:53.772Z,19.61
2023-08-22T20:30:22.975Z,19.56
2023-08-22T20:32:52.200Z,19.54
2023-08-22T20:35:21.738Z,19.48
2023-08-22T20:37:51.207Z,19.44
2023-08-22T20:40:20.432Z,19.39
2023-08-22T20:42:49.676Z,19.36
2023-08-22T20:45:18.891Z,19.33
2023-08-22T20:47:48.494Z,19.29
2023-08-22T20:50:17.913Z,19.22
2023-08-22T20:52:47.131Z,19.18
2023-08-22T20:55:16.313Z,19.12
2023-08-22T20:57:45.835Z,19.09
2023-08-22T21:00:19.132Z,19.06
2023-08-22T21:02:48.715Z,19.02
2023-08-22T21:05:18.149Z,18.99
2023-08-22T21:07:47.805Z,18.92
2023-08-22T21:10:17.129Z,18.89
2023-08-22T21:12:46.564Z,18.84
2023-08-22T21:15:15.917Z,18.83
2023-08-22T21:17:45.807Z,18.78
2023-08-22T21:20:15.285Z,18.75
2023-08-22T21:22:44.652Z,18.72
2023-08-22T21:25:14.282Z,18.65
2023-08-22T21:27:43.656Z,18.59
2023-08-22T21:30:14.948Z,18.56
2023-08-22T21:32:44.301Z,18.55
2023-08-22T21:35:13.551Z,18.49
2023-08-22T21:37:44.891Z,18.45
2023-08-22T21:40:14.088Z,18.43
2023-08-22T21:42:43.375Z,18.39
2023-08-22T21:45:16.668Z,18.37
2023-08-22T21:47:46.463Z,18.32
2023-08-22T21:50:15.742Z,18.30
2023-08-22T21:52:45.973Z,18.28
2023-08-22T21:55:15.444Z,18.22
2023-08-22T21:57:44.746Z,18.16
2023-08-22T22:00:15.239Z,18.14
2023-08-22T22:02:44.587Z,18.10
2023-08-22T22:05:13.867Z,18.07
2023-08-22T22:07:43.023Z,18.04
2023-08-22T22:10:12.314Z,18.01
2023-08-22T22:12:41.538Z,17.97
2023-08-22T22:15:11.003Z,17.96
2023-08-22T22:17:40.985Z,17.93
2023-08-22T22:20:11.305Z,17.88
2023-08-22T22:22:40.647Z,17.85
2023-08-22T22:25:11.746Z,17.82
2023-08-22T22:27:41.055Z,17.80
2023-08-22T22:30:10.789Z,17.77
2023-08-22T22:32:39.972Z,17.74
2023-08-22T22:35:09.479Z,17.67
2023-08-22T22:37:38.655Z,17.62
2023-08-22T22:40:08.467Z,17.58
2023-08-22T22:42:37.898Z,17.55
2023-08-22T22:45:07.529Z,17.52
2023-08-22T22:47:36.858Z,17.49
2023-08-22T22:50:06.324Z,17.48
2023-08-22T22:52:35.482Z,17.45
2023-08-22T22:55:04.757Z,17.42
2023-08-22T22:57:33.977Z,17.40
2023-08-22T23:00:05.574Z,17.39
2023-08-22T23:02:35.025Z,17.34
2023-08-22T23:05:04.458Z,17.28
2023-08-22T23:07:33.639Z,17.27
2023-08-22T23:10:02.869Z,17.24
2023-08-22T23:12:35.056Z,17.23
2023-08-22T23:15:04.858Z,17.21
2023-08-22T23:17:36.891Z,17.17
2023-08-22T23:20:08.476Z,17.12
2023-08-22T23:22:42.625Z,17.08
2023-08-22T23:25:12.425Z,17.05
2023-08-22T23:27:42.280Z,17.02
2023-08-22T23:30:13.821Z,17.00
2023-08-22T23:32:43.062Z,16.99
2023-08-22T23:35:12.286Z,16.95
2023-08-22T23:37:41.539Z,16.94
2023-08-22T23:40:40.070Z,16.89
2023-08-22T23:43:09.234Z,16.84
2023-08-22T23:45:38.506Z,16.82
2023-08-22T23:48:07.752Z,16.79
2023-08-22T23:50:36.937Z,16.75
2023-08-22T23:53:06.218Z,16.72
2023-08-22T23:55:35.412Z,16.70
2023-08-22T23:58:04.615Z,16.66
